Chicken, Alaska
Current Conditions -  °F | °C
As of 9:53 PM on Sunday 21 Dec 2014 (Local Time) from PAEG Reporting Station
Overcast Overcast  
Wind Chill: 14°   Ceiling: 3900
Heat Index: 14°   Visibility: 10mi
Dew Point:   Wind: 0mph
Humidity: 80%   Direction: NA
Pressure: 29.49"   Gusts: NA
Location:  64.07°N, 141.94°W
Report Text: PAEG 220653Z AUTO 00000KT 10SM OVC039 M10/M13 A2949 RMK AO2 SLP007 T11001128 TSNO
Loading
Personal Weather Stations






























Interactive Weather Map New forecast layout! Learn more

10-Day Weather Forecast

Advertisements
Track Severe Weather on mobile